Atlantic City, NJ (08401)

10:17 PM EDT on September 26, 2016 (GMT -0400)
APRSWXNET | | Change Station

Elev 9 ft 39.40 °N, 74.47 °W | Updated 23 minutes ago

Overcast
Overcast
70 °F
Feels Like 70 °F
N
0
Wind Variable Wind from SE
Gusts 0.0 mph

Today
High -- | Low -- °F
--% Chance of Precip.
Yesterday
High -- | Low -- °F
Precip. -- in
Pressure 30.04 in
Visibility 10.0 miles
Clouds Scattered Clouds 2400 ft
Mostly Cloudy 2900 ft
Overcast 4000 ft
Dew Point 65 °F
Humidity 84%
Rainfall in
Snow Depth Not available.
6:49 AM 6:47 PM
Waning Crescent, 15% visible
SPECI KACY 270208Z 18008KT 10SM SCT024 BKN029 OVC040 22/16 A3004 RMK AO2 T02170161
Pressure 30.04 in
Visibility 10.0 miles
Clouds Scattered Clouds 2400 ft
Mostly Cloudy 2900 ft
Overcast 4000 ft
Dew Point 65 °F
Humidity 84%
Rainfall in
Snow Depth Not available.
6:49 AM 6:47 PM
Waning Crescent, 15% visible
SPECI KACY 270208Z 18008KT 10SM SCT024 BKN029 OVC040 22/16 A3004 RMK AO2 T02170161

10-Day Weather Forecast

Almanac

Astronomy

Sep. 26, 2016 Rise Set
Actual Time
Civil Twilight
Nautical Twilight
Astronomical Twilight
Moon
Length of Visible Light
Length of Day
Tomorrow will be .
, % of the Moon is Illuminated

Today's Extremes

State Highs State Lows

Community

WunderPhotos

Upload Photos

1,942,020 photos uploaded!

WunderBlog® & News

Nearby

Air Quality

  Air Quality AQ Index Pollutant
Not available.

Snow Depth

Station Depth Elevation

Earthquake Activity

City Distance Mag. Time & Date
Minimum magnitude displayed is 2.5.

Coastal Water Temperatures

Place Temperature

Stations

Nearby Weather Stations

Station Location Temp. Windchill Dew Point Humidity Wind Precip. Elev Updated Type
                   

Watches & Warnings

There are currently no watches in effect.